Time;durP1;ratioP1;P1;durP2;ratioP2;P2;SDS_P1;SDS_P2;PMS_P1;PMS_P2;Temp;Humidity;BMP_temperature;BMP_pressure;BME280_temperature;BME280_humidity;BME280_pressure;Samples;Min_cycle;Max_cycle;Signal;HPM_P1;HPM_P2
2021/12/11 00:04:08;;;;;;;8.82;4.35;;;;;;;-0.64;94.19;95447.19;10295284;28;97262;-65
2021/12/11 00:09:16;;;;;;;8.95;4.13;;;;;;;-0.61;94.32;95449.56;10304881;28;96769;-64
2021/12/11 00:14:22;;;;;;;11.63;4.75;;;;;;;-0.66;94.27;95451.63;10303425;28;97218;-65
2021/12/11 00:19:30;;;;;;;8.02;3.92;;;;;;;-0.73;94.29;95446.88;10301494;28;96885;-65
2021/12/11 00:24:35;;;;;;;9.15;3.47;;;;;;;-0.73;94.14;95452.00;10308639;28;96814;-65
2021/12/11 00:29:39;;;;;;;6.88;3.88;;;;;;;-0.75;94.28;95441.00;10304868;28;100447;-65
2021/12/11 00:34:43;;;;;;;6.25;2.45;;;;;;;-0.71;94.33;95450.16;10324669;28;96973;-65
2021/12/11 00:39:49;;;;;;;6.20;2.38;;;;;;;-0.69;94.50;95462.06;10320221;28;96917;-64
2021/12/11 00:44:56;;;;;;;4.95;2.45;;;;;;;-0.69;94.75;95485.97;10316355;28;97217;-65
2021/12/11 00:50:01;;;;;;;4.68;1.70;;;;;;;-0.75;94.27;95484.63;10309520;28;96946;-65
2021/12/11 00:55:08;;;;;;;2.17;1.77;;;;;;;-0.76;94.77;95493.22;10300207;28;97026;-65
2021/12/11 01:00:18;;;;;;;5.03;2.35;;;;;;;-0.78;94.86;95489.94;10312700;28;96871;-65
2021/12/11 01:05:23;;;;;;;9.30;1.92;;;;;;;-0.76;94.52;95503.47;10299191;28;97862;-65
2021/12/11 01:10:29;;;;;;;5.22;1.85;;;;;;;-0.71;95.10;95506.56;10311701;28;96926;-65
2021/12/11 01:15:40;;;;;;;4.47;1.70;;;;;;;-0.68;94.83;95515.84;10313668;28;97164;-65
2021/12/11 01:20:52;;;;;;;7.18;2.40;;;;;;;-0.61;94.67;95531.66;10296316;28;97040;-65
2021/12/11 01:25:56;;;;;;;4.70;1.80;;;;;;;-0.65;94.55;95528.47;10305176;28;96836;-65
2021/12/11 01:31:03;;;;;;;3.67;1.60;;;;;;;-0.63;94.59;95534.31;10316201;28;96833;-65
2021/12/11 01:36:08;;;;;;;4.72;2.17;;;;;;;-0.71;94.64;95547.59;10310630;28;97432;-65
2021/12/11 01:41:16;;;;;;;5.17;2.03;;;;;;;-0.73;94.84;95554.59;10306496;28;97070;-65
2021/12/11 01:46:23;;;;;;;4.72;2.00;;;;;;;-0.67;94.86;95560.25;10325082;28;96718;-65
2021/12/11 01:51:31;;;;;;;5.68;2.10;;;;;;;-0.62;95.19;95589.00;10293196;28;97904;-65
2021/12/11 01:56:34;;;;;;;4.47;1.90;;;;;;;-0.67;94.56;95603.84;10299082;28;96723;-65
2021/12/11 02:01:42;;;;;;;4.28;1.80;;;;;;;-0.58;95.01;95608.41;10294458;28;97747;-65
2021/12/11 02:06:50;;;;;;;4.28;1.90;;;;;;;-0.54;94.80;95609.88;10306893;28;97951;-65
2021/12/11 02:12:03;;;;;;;4.03;1.90;;;;;;;-0.57;94.25;95610.06;10285234;28;98986;-65
2021/12/11 02:17:16;;;;;;;3.83;1.63;;;;;;;-0.54;94.44;95604.75;10306297;28;96952;-65
2021/12/11 02:22:24;;;;;;;4.57;2.00;;;;;;;-0.55;94.57;95613.34;10305408;28;96878;-65
2021/12/11 02:27:30;;;;;;;4.75;2.47;;;;;;;-0.66;94.06;95639.69;10316218;28;96924;-65
2021/12/11 02:32:39;;;;;;;7.07;2.10;;;;;;;-0.61;94.63;95621.44;10310003;28;97090;-65
2021/12/11 02:37:50;;;;;;;6.78;2.60;;;;;;;-0.67;93.96;95630.31;10321787;28;97177;-65
2021/12/11 02:42:56;;;;;;;4.05;1.75;;;;;;;-0.65;94.50;95632.78;10312456;28;97623;-65
2021/12/11 02:48:05;;;;;;;3.15;1.85;;;;;;;-0.73;94.51;95631.53;10304024;28;97813;-65
2021/12/11 02:53:14;;;;;;;4.88;2.13;;;;;;;-0.67;94.67;95639.78;10305475;28;98734;-65
2021/12/11 02:58:24;;;;;;;6.85;2.60;;;;;;;-0.68;94.08;95645.81;10294011;28;96968;-65
2021/12/11 03:03:32;;;;;;;5.55;3.00;;;;;;;-0.67;94.36;95644.91;10288030;28;97000;-65
2021/12/11 03:08:38;;;;;;;6.18;2.60;;;;;;;-0.61;94.73;95659.94;10287814;28;97055;-65
2021/12/11 03:13:44;;;;;;;7.53;2.78;;;;;;;-0.60;94.38;95652.13;10292827;28;98407;-65
2021/12/11 03:18:48;;;;;;;7.28;2.88;;;;;;;-0.59;94.38;95653.78;10293706;28;98358;-64
2021/12/11 03:23:55;;;;;;;7.63;3.28;;;;;;;-0.55;94.72;95665.47;10298007;28;98546;-64
2021/12/11 03:28:58;;;;;;;6.18;3.10;;;;;;;-0.52;94.48;95659.34;10285453;28;96871;-65
2021/12/11 03:34:01;;;;;;;5.82;2.72;;;;;;;-0.53;94.74;95670.53;10304010;28;96887;-65
2021/12/11 03:39:09;;;;;;;4.80;3.03;;;;;;;-0.50;94.56;95682.34;10301529;28;98623;-65
2021/12/11 03:44:12;;;;;;;4.20;2.83;;;;;;;-0.50;94.78;95688.31;10290865;28;97099;-65
2021/12/11 03:49:18;;;;;;;5.95;3.15;;;;;;;-0.48;94.16;95686.47;10289435;28;98472;-65
2021/12/11 03:54:27;;;;;;;5.55;3.13;;;;;;;-0.48;94.74;95691.59;10283599;28;98891;-65
2021/12/11 03:59:31;;;;;;;6.38;3.20;;;;;;;-0.44;94.25;95703.34;10282265;28;98561;-65
2021/12/11 04:04:37;;;;;;;5.88;3.28;;;;;;;-0.42;94.71;95701.50;10285013;28;97511;-65
2021/12/11 04:09:41;;;;;;;7.00;3.10;;;;;;;-0.47;94.36;95692.44;10291666;28;97442;-65
2021/12/11 04:14:47;;;;;;;4.78;2.90;;;;;;;-0.39;94.32;95714.16;10289528;28;96944;-65
2021/12/11 04:19:51;;;;;;;8.13;3.17;;;;;;;-0.33;94.02;95711.19;10285760;28;97020;-65
2021/12/11 04:24:56;;;;;;;5.53;2.97;;;;;;;-0.31;94.07;95715.41;10290312;28;96757;-65
2021/12/11 04:30:03;;;;;;;6.32;2.97;;;;;;;-0.32;94.20;95712.00;10298491;28;97668;-65
2021/12/11 04:35:08;;;;;;;7.10;3.08;;;;;;;-0.45;94.41;95732.47;10293981;28;98479;-65
2021/12/11 04:40:16;;;;;;;8.90;2.97;;;;;;;-0.58;93.96;95736.69;10306744;28;96695;-65
2021/12/11 04:45:23;;;;;;;5.47;3.00;;;;;;;-0.54;94.28;95728.72;10293059;28;98869;-65
2021/12/11 04:50:29;;;;;;;7.97;2.58;;;;;;;-0.50;93.85;95731.94;10285243;28;98666;-65
2021/12/11 04:55:51;;;;;;;6.47;2.60;;;;;;;-0.52;94.38;95741.47;10291664;28;97296;-65
2021/12/11 05:01:07;;;;;;;4.43;2.65;;;;;;;-0.57;94.30;95743.47;10291570;28;97492;-65
2021/12/11 05:06:28;;;;;;;6.40;3.00;;;;;;;-0.67;94.06;95778.28;10304927;28;97466;-65
2021/12/11 05:11:39;;;;;;;4.75;3.80;;;;;;;-0.60;94.52;95771.88;10293858;28;99152;-65
2021/12/11 05:16:42;;;;;;;5.82;3.20;;;;;;;-0.52;95.08;95756.84;10291068;28;97018;-65
2021/12/11 05:21:46;;;;;;;6.28;3.55;;;;;;;-0.39;94.45;95762.91;10276299;28;98266;-65
2021/12/11 05:26:50;;;;;;;8.10;3.97;;;;;;;-0.36;94.81;95772.16;10279841;28;98324;-65
2021/12/11 05:31:53;;;;;;;8.80;4.13;;;;;;;-0.44;94.12;95795.72;10280645;28;98296;-65
2021/12/11 05:36:56;;;;;;;8.10;3.35;;;;;;;-0.57;94.04;95813.56;10290647;28;96786;-65
2021/12/11 05:42:01;;;;;;;5.53;3.10;;;;;;;-0.47;94.17;95807.91;10296598;28;98529;-65
2021/12/11 05:47:05;;;;;;;7.05;3.38;;;;;;;-0.38;94.81;95820.19;10288945;28;97702;-65
2021/12/11 05:52:10;;;;;;;7.23;3.27;;;;;;;-0.39;94.08;95814.25;10291024;28;97966;-65
2021/12/11 05:57:17;;;;;;;5.80;2.93;;;;;;;-0.41;94.50;95840.88;10296146;28;96782;-65
2021/12/11 06:02:24;;;;;;;5.07;2.58;;;;;;;-0.42;94.29;95840.06;10292026;28;97837;-65
2021/12/11 06:07:29;;;;;;;4.43;3.05;;;;;;;-0.47;94.13;95857.47;10302216;28;96882;-65
2021/12/11 06:12:34;;;;;;;5.78;2.30;;;;;;;-0.50;94.37;95842.25;10283074;28;97795;-65
2021/12/11 06:17:38;;;;;;;4.78;3.42;;;;;;;-0.49;94.60;95828.53;10287800;28;97124;-65
2021/12/11 06:22:42;;;;;;;6.72;3.67;;;;;;;-0.53;94.52;95829.59;10283451;28;96924;-65
2021/12/11 06:27:47;;;;;;;7.55;4.05;;;;;;;-0.52;94.66;95821.00;10286699;28;98993;-64
2021/12/11 06:32:52;;;;;;;7.07;3.83;;;;;;;-0.45;94.75;95839.44;10287178;28;96802;-65
2021/12/11 06:37:55;;;;;;;7.93;3.60;;;;;;;-0.52;94.44;95869.75;10300213;28;97048;-65
2021/12/11 06:43:00;;;;;;;6.20;3.58;;;;;;;-0.45;95.08;95865.09;10283520;28;98998;-65
2021/12/11 06:48:03;;;;;;;7.45;3.53;;;;;;;-0.53;94.36;95899.72;10287723;28;97480;-65
2021/12/11 06:53:11;;;;;;;8.55;3.88;;;;;;;-0.51;94.96;95902.22;10290096;28;97003;-65
2021/12/11 06:58:16;;;;;;;10.00;3.75;;;;;;;-0.41;94.71;95913.56;10296514;28;96948;-65
2021/12/11 07:03:19;;;;;;;6.70;4.15;;;;;;;-0.35;94.56;95897.00;10286101;28;99153;-65
2021/12/11 07:08:23;;;;;;;6.97;3.58;;;;;;;-0.37;94.41;95899.66;10287412;28;101901;-65
2021/12/11 07:13:28;;;;;;;8.43;3.95;;;;;;;-0.48;94.17;95911.47;10286721;28;96941;-65
2021/12/11 07:18:31;;;;;;;7.77;3.80;;;;;;;-0.57;94.36;95912.81;10286469;28;98892;-65
2021/12/11 07:23:35;;;;;;;7.60;3.80;;;;;;;-0.49;94.18;95926.03;10284272;28;97715;-65
2021/12/11 07:28:39;;;;;;;8.50;3.70;;;;;;;-0.47;94.67;95918.25;10288692;28;98435;-65
2021/12/11 07:33:42;;;;;;;9.73;4.53;;;;;;;-0.44;94.00;95925.75;10287165;28;101797;-65
2021/12/11 07:38:46;;;;;;;8.93;4.50;;;;;;;-0.45;94.64;95937.75;10293065;28;97786;-65
2021/12/11 07:43:51;;;;;;;9.43;4.38;;;;;;;-0.45;94.35;95958.28;10296188;28;98738;-65
2021/12/11 07:48:57;;;;;;;7.93;4.03;;;;;;;-0.36;94.57;95942.38;10282669;28;98748;-65
2021/12/11 07:54:00;;;;;;;6.88;4.03;;;;;;;-0.38;94.25;95974.19;10275404;28;98953;-65
2021/12/11 07:59:07;;;;;;;9.85;4.00;;;;;;;-0.40;94.74;95970.88;10284748;28;97994;-65
2021/12/11 08:04:10;;;;;;;7.25;4.20;;;;;;;-0.29;94.48;96003.63;10282132;28;97943;-65
2021/12/11 08:09:16;;;;;;;8.77;4.05;;;;;;;-0.20;95.07;95993.66;10285793;28;97800;-65
2021/12/11 08:14:20;;;;;;;;;;;;;;;-0.06;94.74;95999.72;10299952;28;96918;-65
2021/12/11 08:19:26;;;;;;;7.22;4.68;;;;;;;0.02;95.27;96016.34;10304125;28;100525;-65
2021/12/11 08:24:29;;;;;;;8.75;4.60;;;;;;;0.14;94.80;96011.44;10293434;28;97260;-65
2021/12/11 08:29:34;;;;;;;7.32;4.47;;;;;;;0.22;95.03;96014.38;10294264;28;100291;-65
2021/12/11 08:34:37;;;;;;;7.90;5.00;;;;;;;0.23;95.00;96034.81;10292655;28;96755;-65
2021/12/11 08:39:42;;;;;;;7.35;4.75;;;;;;;0.13;94.01;96056.00;10288081;28;96773;-65
2021/12/11 08:44:52;;;;;;;7.72;4.82;;;;;;;0.21;94.93;96048.69;10282770;28;96905;-65
2021/12/11 08:49:56;;;;;;;13.85;6.45;;;;;;;0.25;94.75;96078.41;10276754;28;97537;-65
2021/12/11 08:55:00;;;;;;;9.27;4.80;;;;;;;0.37;94.97;96080.28;10289980;28;97066;-65
2021/12/11 09:00:11;;;;;;;6.68;4.70;;;;;;;0.49;94.97;96093.34;10296630;28;98119;-65
2021/12/11 09:05:19;;;;;;;9.48;5.07;;;;;;;0.50;94.95;96102.72;10291519;28;97255;-65
2021/12/11 09:10:25;;;;;;;8.15;4.70;;;;;;;0.49;94.38;96111.31;10301075;28;96823;-65
2021/12/11 09:15:33;;;;;;;9.00;4.65;;;;;;;0.63;95.66;96113.09;10280720;28;101445;-65
2021/12/11 09:20:40;;;;;;;9.18;4.57;;;;;;;0.78;94.92;96128.44;10296261;28;97318;-66
2021/12/11 09:25:48;;;;;;;8.20;5.00;;;;;;;0.75;94.69;96136.31;10289657;28;96878;-65
2021/12/11 09:30:59;;;;;;;7.38;4.63;;;;;;;0.94;94.50;96140.41;10293477;28;97013;-66
2021/12/11 09:36:12;;;;;;;8.10;4.95;;;;;;;1.13;94.90;96140.94;10283493;28;96911;-65
2021/12/11 09:41:24;;;;;;;6.68;4.78;;;;;;;1.32;95.51;96145.00;10308864;28;96733;-65
2021/12/11 09:46:32;;;;;;;6.70;4.70;;;;;;;1.48;95.07;96166.28;10322074;28;96903;-65
2021/12/11 09:51:41;;;;;;;11.63;6.38;;;;;;;1.39;94.20;96161.72;10306169;28;96862;-66
2021/12/11 09:56:51;;;;;;;9.82;6.22;;;;;;;1.50;95.28;96164.44;10291383;28;98176;-65
2021/12/11 10:02:00;;;;;;;11.77;7.00;;;;;;;1.59;94.84;96159.66;10288247;28;96784;-65
2021/12/11 10:07:27;;;;;;;10.95;7.10;;;;;;;1.63;94.73;96164.53;10294145;28;96911;-66
2021/12/11 10:12:34;;;;;;;15.05;6.80;;;;;;;1.62;95.04;96172.34;10291123;28;96890;-66
2021/12/11 10:17:43;;;;;;;11.48;6.80;;;;;;;1.72;95.39;96173.44;10298098;28;96815;-66
2021/12/11 10:22:47;;;;;;;10.93;6.88;;;;;;;1.51;93.36;96191.84;10291197;28;98958;-65
2021/12/11 10:27:50;;;;;;;9.73;5.63;;;;;;;1.66;95.40;96194.41;10300734;28;100947;-65
2021/12/11 10:32:55;;;;;;;10.02;6.28;;;;;;;1.63;94.50;96204.91;10294742;28;97090;-66
2021/12/11 10:38:00;;;;;;;10.25;5.28;;;;;;;1.76;94.56;96192.91;10311430;28;99589;-65
2021/12/11 10:43:08;;;;;;;8.93;5.03;;;;;;;1.86;94.40;96208.63;10306686;28;97070;-65
2021/12/11 10:48:16;;;;;;;7.47;5.18;;;;;;;1.74;94.10;96202.50;10279253;28;98193;-66
2021/12/11 10:53:22;;;;;;;9.55;5.78;;;;;;;1.86;94.48;96201.72;10281856;28;100862;-66
2021/12/11 10:58:28;;;;;;;10.70;5.95;;;;;;;1.84;94.58;96216.47;10288468;28;97000;-66
2021/12/11 11:03:36;;;;;;;8.35;5.57;;;;;;;1.96;94.70;96214.88;10285288;28;97543;-66
2021/12/11 11:08:40;;;;;;;10.20;6.03;;;;;;;2.10;94.42;96214.00;10291903;28;96829;-66
2021/12/11 11:13:49;;;;;;;10.40;6.03;;;;;;;2.29;94.53;96218.84;10277924;28;96904;-65
2021/12/11 11:18:53;;;;;;;8.85;4.70;;;;;;;2.37;94.24;96221.75;10296356;28;97904;-66
2021/12/11 11:23:58;;;;;;;8.05;4.70;;;;;;;2.45;94.97;96213.53;10298033;28;97545;-66
2021/12/11 11:29:03;;;;;;;7.90;5.43;;;;;;;2.54;94.81;96225.00;10303406;28;97404;-66
2021/12/11 11:34:12;;;;;;;10.02;6.03;;;;;;;2.64;94.68;96216.56;10296737;28;98865;-66
2021/12/11 11:39:17;;;;;;;10.68;5.85;;;;;;;2.88;94.66;96218.47;10305753;28;96843;-66
2021/12/11 11:44:24;;;;;;;4.80;2.85;;;;;;;2.89;94.27;96238.19;10280292;28;97317;-66
2021/12/11 11:49:29;;;;;;;5.95;3.58;;;;;;;2.91;93.76;96235.50;10305457;28;97093;-66
2021/12/11 11:54:32;;;;;;;;;;;;;;;3.03;93.76;96240.69;10306507;28;96737;-66
2021/12/11 11:59:35;;;;;;;10.52;4.53;;;;;;;3.04;94.17;96250.06;10305920;28;96774;-66
2021/12/11 12:04:40;;;;;;;9.50;4.88;;;;;;;2.80;93.30;96249.94;10285898;28;98071;-66
2021/12/11 12:09:45;;;;;;;7.72;4.25;;;;;;;2.73;93.17;96260.75;10311884;28;96983;-66
2021/12/11 12:14:50;;;;;;;8.70;4.60;;;;;;;2.75;93.45;96251.16;10311762;28;98078;-66
2021/12/11 12:19:55;;;;;;;8.70;5.13;;;;;;;2.55;91.31;96255.03;10305791;28;96981;-66
2021/12/11 12:24:59;;;;;;;7.75;5.07;;;;;;;2.65;92.62;96267.25;10305536;28;97948;-66
2021/12/11 12:30:07;;;;;;;10.35;5.00;;;;;;;2.68;92.95;96267.03;10308326;28;96948;-66
2021/12/11 12:35:14;;;;;;;8.52;4.90;;;;;;;2.79;93.43;96271.50;10295304;28;96830;-66
2021/12/11 12:40:27;;;;;;;10.57;5.15;;;;;;;2.84;93.45;96277.19;10309141;28;96793;-66
2021/12/11 12:45:34;;;;;;;9.55;5.20;;;;;;;2.66;91.98;96280.94;10311487;28;96843;-66
2021/12/11 12:50:43;;;;;;;8.43;4.65;;;;;;;2.78;92.77;96276.75;10312312;28;96721;-66
2021/12/11 12:55:51;;;;;;;8.52;4.68;;;;;;;2.69;92.23;96280.75;10290606;28;97198;-66
2021/12/11 13:00:57;;;;;;;8.18;5.15;;;;;;;2.91;93.01;96287.97;10318843;28;97093;-66
2021/12/11 13:06:06;;;;;;;7.03;4.80;;;;;;;3.01;92.92;96281.25;10308264;28;96905;-66
2021/12/11 13:11:13;;;;;;;8.35;4.88;;;;;;;3.24;93.21;96290.06;10305516;28;97099;-65
2021/12/11 13:16:21;;;;;;;9.05;5.40;;;;;;;3.44;93.51;96290.50;10287132;28;99254;-66
2021/12/11 13:21:29;;;;;;;9.65;5.05;;;;;;;3.60;93.19;96301.47;10304938;28;97288;-66
2021/12/11 13:26:34;;;;;;;9.63;5.85;;;;;;;3.31;92.81;96313.75;10282956;28;98877;-66
2021/12/11 13:31:41;;;;;;;8.20;5.05;;;;;;;3.24;92.54;96330.56;10282131;28;98594;-66
2021/12/11 13:36:46;;;;;;;7.45;3.92;;;;;;;3.02;90.90;96336.28;10286333;28;97879;-66
2021/12/11 13:41:59;;;;;;;8.35;4.18;;;;;;;2.98;91.68;96340.81;10288740;28;97348;-66
2021/12/11 13:47:07;;;;;;;7.15;4.07;;;;;;;2.95;91.51;96332.44;10288166;28;98292;-69
2021/12/11 13:52:13;;;;;;;5.38;3.90;;;;;;;3.04;92.34;96344.75;10285796;28;98244;-65
2021/12/11 13:57:24;;;;;;;14.57;8.87;;;;;;;3.09;92.17;96347.06;10291435;28;98565;-67
2021/12/11 14:02:28;;;;;;;8.02;3.85;;;;;;;3.09;91.86;96354.78;10286017;28;97158;-66
2021/12/11 14:07:36;;;;;;;8.52;4.35;;;;;;;3.10;92.11;96366.75;10287080;28;97123;-66
2021/12/11 14:12:39;;;;;;;8.23;4.95;;;;;;;3.15;92.22;96368.09;10296657;28;100860;-66
2021/12/11 14:17:42;;;;;;;9.48;4.47;;;;;;;3.23;91.62;96383.13;10289296;28;96863;-66
2021/12/11 14:22:48;;;;;;;8.55;5.22;;;;;;;3.00;91.78;96393.16;10297546;28;96907;-65
2021/12/11 14:27:53;;;;;;;6.28;4.32;;;;;;;3.04;91.92;96399.78;10287795;28;98622;-65
2021/12/11 14:32:56;;;;;;;9.05;4.88;;;;;;;3.00;92.16;96411.22;10278796;28;96921;-66
2021/12/11 14:38:02;;;;;;;8.43;5.57;;;;;;;2.92;91.97;96423.78;10284977;28;99380;-66
2021/12/11 14:43:06;;;;;;;11.07;6.18;;;;;;;2.76;91.39;96433.41;10293458;28;99041;-66
2021/12/11 14:48:09;;;;;;;9.63;6.13;;;;;;;2.69;91.80;96430.38;10293168;28;97270;-66
2021/12/11 14:53:21;;;;;;;9.85;5.75;;;;;;;2.63;90.74;96448.78;10288792;28;97827;-66
2021/12/11 14:58:25;;;;;;;8.98;5.10;;;;;;;2.59;91.25;96448.16;10288164;28;98621;-66
2021/12/11 15:03:30;;;;;;;12.27;7.10;;;;;;;2.45;90.79;96450.75;10290503;28;99754;-66
2021/12/11 15:08:35;;;;;;;6.90;5.55;;;;;;;2.37;90.20;96455.53;10310144;28;96773;-65
2021/12/11 15:13:39;;;;;;;7.45;5.53;;;;;;;2.27;90.35;96463.81;10321821;28;96837;-66
2021/12/11 15:18:49;;;;;;;7.68;4.95;;;;;;;2.10;89.14;96462.22;10296219;28;97321;-66
2021/12/11 15:23:58;;;;;;;9.50;6.10;;;;;;;1.93;88.99;96470.94;10306728;28;96810;-66
2021/12/11 15:29:01;;;;;;;11.45;6.38;;;;;;;1.68;88.96;96465.56;10316309;28;96868;-66
2021/12/11 15:34:07;;;;;;;9.55;6.70;;;;;;;1.46;88.47;96466.75;10318570;28;96953;-66
2021/12/11 15:39:18;;;;;;;13.85;8.48;;;;;;;1.30;88.26;96465.97;10311784;28;97119;-66
2021/12/11 15:44:27;;;;;;;13.45;8.07;;;;;;;1.02;87.92;96470.06;10313498;28;96948;-66
2021/12/11 15:49:30;;;;;;;13.88;7.82;;;;;;;0.88;88.14;96469.97;10301952;28;98771;-66
2021/12/11 15:54:34;;;;;;;14.38;7.38;;;;;;;0.52;88.13;96483.88;10283993;28;97176;-66
2021/12/11 16:01:40;;;;;;;18.08;6.55;;;;;;;8.09;84.14;96480.72;10387964;27;98255;-66
2021/12/11 16:06:45;;;;;;;17.67;6.15;;;;;;;11.16;83.44;96476.25;10404635;28;97422;-66
2021/12/11 16:11:50;;;;;;;18.42;6.25;;;;;;;13.50;82.44;96485.53;10402186;28;97042;-65
2021/12/11 16:16:59;;;;;;;14.65;6.22;;;;;;;15.19;80.90;96487.63;10392053;28;97512;-66
2021/12/11 16:22:07;;;;;;;16.90;6.10;;;;;;;16.40;78.26;96496.81;10401440;27;100529;-66
2021/12/11 16:27:11;;;;;;;14.57;6.25;;;;;;;17.28;76.33;96505.00;10399833;28;97265;-66
2021/12/11 16:32:15;;;;;;;11.05;5.72;;;;;;;17.92;71.44;96509.66;10401513;27;97231;-64
2021/12/11 16:37:30;;;;;;;;;;;;;;;18.43;77.19;96511.34;10403108;27;97065;-66
2021/12/11 16:42:59;;;;;;;9.90;5.15;;;;;;;18.81;70.42;96514.53;10401058;28;97274;-66
2021/12/11 16:48:02;;;;;;;9.25;4.45;;;;;;;19.14;68.18;96529.84;10398337;27;100694;-68
2021/12/11 16:53:09;;;;;;;10.20;4.40;;;;;;;19.37;65.54;96536.69;10400753;28;97109;-69
2021/12/11 16:58:13;;;;;;;11.18;4.85;;;;;;;19.55;63.16;96536.16;10400699;28;96997;-70
2021/12/11 17:03:16;;;;;;;8.27;4.43;;;;;;;19.70;62.51;96539.50;10393558;27;99136;-73
2021/12/11 17:08:21;;;;;;;12.07;5.15;;;;;;;19.84;59.47;96551.00;10399257;27;97876;-71
2021/12/11 17:13:27;;;;;;;8.80;4.80;;;;;;;19.96;58.28;96562.66;10370150;28;97157;-71
2021/12/11 17:18:36;;;;;;;8.02;4.47;;;;;;;20.09;56.87;96566.38;10379179;28;97150;-70
2021/12/11 17:23:41;;;;;;;9.63;4.03;;;;;;;20.20;56.26;96576.41;10372222;28;97083;-71
2021/12/11 17:28:46;;;;;;;7.55;4.57;;;;;;;20.27;54.50;96577.25;10371452;28;97125;-70
2021/12/11 17:33:50;;;;;;;8.85;4.57;;;;;;;20.34;53.24;96570.09;10383144;28;99894;-70
2021/12/11 17:38:57;;;;;;;7.82;4.07;;;;;;;20.43;51.44;96577.88;10374916;28;96769;-70
2021/12/11 17:44:00;;;;;;;8.50;4.57;;;;;;;20.51;51.31;96582.97;10372657;28;101097;-70
2021/12/11 17:49:04;;;;;;;6.57;4.25;;;;;;;20.57;51.33;96592.81;10367570;28;96873;-69
2021/12/11 17:54:12;;;;;;;7.43;4.07;;;;;;;20.63;50.17;96581.34;10368993;28;99120;-68
2021/12/11 17:59:16;;;;;;;6.63;4.00;;;;;;;20.71;49.92;96583.81;10381232;28;96981;-69
2021/12/11 18:04:24;;;;;;;6.55;4.10;;;;;;;20.77;49.70;96586.72;10373683;28;101235;-69
2021/12/11 18:09:37;;;;;;;7.15;4.07;;;;;;;20.80;48.50;96592.44;10369893;28;97387;-68
2021/12/11 18:14:43;;;;;;;5.40;3.72;;;;;;;20.84;48.85;96588.38;10383433;28;97044;-68
2021/12/11 18:20:14;;;;;;;7.15;3.95;;;;;;;20.91;48.11;96593.66;10376069;28;98584;-69
2021/12/11 18:25:21;;;;;;;5.25;3.60;;;;;;;20.91;47.15;96599.81;10374010;28;96903;-68
2021/12/11 18:30:28;;;;;;;6.63;3.58;;;;;;;20.97;46.36;96610.63;10373657;28;97138;-69
2021/12/11 18:35:34;;;;;;;6.47;4.22;;;;;;;20.99;45.52;96612.06;10373000;28;96882;-68
2021/12/11 18:40:44;;;;;;;5.75;3.28;;;;;;;21.08;45.00;96624.09;10373495;28;98052;-73
2021/12/11 18:45:53;;;;;;;4.75;3.60;;;;;;;21.15;44.36;96625.94;10370022;28;97186;-73
2021/12/11 18:50:59;;;;;;;6.13;3.80;;;;;;;21.18;43.73;96636.16;10368456;28;98327;-70
2021/12/11 18:56:06;;;;;;;748.88;242.98;;;;;;;21.15;43.43;96648.00;10371776;28;98321;-73
2021/12/11 19:01:15;;;;;;;820.30;293.17;;;;;;;21.25;43.45;96644.94;10363794;28;98009;-67
2021/12/11 19:06:23;;;;;;;921.40;332.40;;;;;;;21.30;42.95;96645.97;10362416;28;98787;-67
2021/12/11 19:11:31;;;;;;;832.67;314.98;;;;;;;21.38;42.79;96658.25;10368371;28;97130;-67
2021/12/11 19:16:34;;;;;;;801.70;299.10;;;;;;;21.43;42.36;96666.41;10372621;28;98454;-66
2021/12/11 19:21:40;;;;;;;743.87;281.87;;;;;;;21.49;42.28;96668.22;10367435;28;97319;-66
2021/12/11 19:26:45;;;;;;;687.75;264.02;;;;;;;21.54;42.03;96672.13;10366174;28;96916;-65
2021/12/11 19:31:51;;;;;;;671.42;253.75;;;;;;;21.58;42.15;96676.00;10363815;28;98227;-65
2021/12/11 19:36:59;;;;;;;633.53;241.52;;;;;;;21.64;41.82;96683.16;10364653;28;97061;-66
2021/12/11 19:42:06;;;;;;;605.85;225.88;;;;;;;21.67;41.45;96688.88;10363711;28;96998;-65
2021/12/11 19:47:10;;;;;;;572.38;218.05;;;;;;;21.71;41.53;96689.31;10358539;28;97283;-65
2021/12/11 19:52:21;;;;;;;549.92;205.95;;;;;;;21.77;40.88;96696.44;10370324;28;96946;-65
2021/12/11 19:57:28;;;;;;;527.17;193.35;;;;;;;21.80;41.33;96696.03;10377563;28;100339;-66
2021/12/11 20:02:34;;;;;;;517.90;192.30;;;;;;;21.85;41.05;96701.56;10367918;28;96818;-66
2021/12/11 20:07:38;;;;;;;481.73;173.70;;;;;;;21.96;41.23;96680.66;10353909;28;96830;-66
2021/12/11 20:12:45;;;;;;;461.27;161.63;;;;;;;21.99;40.66;96698.88;10366514;28;97235;-66
2021/12/11 20:17:48;;;;;;;422.90;151.18;;;;;;;22.03;40.52;96703.56;10357034;28;99830;-66
2021/12/11 20:22:54;;;;;;;414.23;144.53;;;;;;;22.08;39.98;96700.28;10358497;28;97024;-66
2021/12/11 20:27:59;;;;;;;386.80;137.65;;;;;;;22.04;39.97;96702.53;10358499;28;97937;-65
2021/12/11 20:33:05;;;;;;;365.35;127.60;;;;;;;22.03;39.93;96702.75;10358725;28;97472;-65
2021/12/11 20:38:09;;;;;;;358.10;126.05;;;;;;;22.05;39.79;96706.00;10362514;28;97282;-65
2021/12/11 20:43:13;;;;;;;;;;;;;;;22.04;41.80;96709.72;10365267;28;97075;-65
2021/12/11 20:48:17;;;;;;;325.33;112.77;;;;;;;22.10;41.12;96718.69;10391122;28;96819;-65
2021/12/11 20:53:24;;;;;;;303.65;108.80;;;;;;;22.12;39.68;96714.78;10374467;28;97017;-65
2021/12/11 20:58:29;;;;;;;291.92;106.65;;;;;;;22.18;39.72;96707.78;10363031;28;98614;-72
2021/12/11 21:03:35;;;;;;;269.67;99.90;;;;;;;22.20;39.56;96719.06;10362493;28;97098;-66
2021/12/11 21:08:37;;;;;;;251.80;92.30;;;;;;;22.25;39.15;96725.41;10363865;28;97666;-65
2021/12/11 21:13:44;;;;;;;235.18;88.30;;;;;;;22.31;38.98;96722.91;10376042;28;97310;-65
2021/12/11 21:18:55;;;;;;;220.30;85.72;;;;;;;22.32;38.68;96727.19;10368974;28;97188;-65
2021/12/11 21:24:02;;;;;;;211.57;82.70;;;;;;;22.31;38.29;96733.56;10365220;28;99717;-66
2021/12/11 21:29:27;;;;;;;192.32;75.03;;;;;;;22.34;38.63;96738.47;10364807;28;98575;-66
2021/12/11 21:34:31;;;;;;;195.73;74.10;;;;;;;22.36;38.33;96739.09;10382306;28;97179;-66
2021/12/11 21:39:37;;;;;;;181.88;70.43;;;;;;;22.38;38.44;96743.16;10373405;27;96777;-66
2021/12/11 21:44:42;;;;;;;178.40;68.32;;;;;;;22.45;38.26;96737.81;10370449;28;97038;-66
2021/12/11 21:49:51;;;;;;;159.95;62.67;;;;;;;22.47;37.59;96741.09;10371729;28;97090;-66
2021/12/11 21:54:56;;;;;;;165.93;63.38;;;;;;;22.49;37.86;96744.41;10374091;28;97301;-67
2021/12/11 22:00:12;;;;;;;156.10;59.00;;;;;;;22.55;38.17;96756.03;10370104;28;100164;-66
2021/12/11 22:05:18;;;;;;;147.95;58.13;;;;;;;22.66;38.24;96759.88;10373940;28;99230;-66
2021/12/11 22:10:25;;;;;;;143.13;56.17;;;;;;;22.67;37.98;96756.19;10378457;28;97181;-67
2021/12/11 22:15:33;;;;;;;139.73;53.95;;;;;;;22.68;37.65;96758.63;10374258;28;96893;-67
2021/12/11 22:20:42;;;;;;;127.50;52.03;;;;;;;22.72;37.54;96770.50;10369054;28;98348;-66
2021/12/11 22:25:58;;;;;;;123.88;51.92;;;;;;;22.74;38.02;96781.75;10367035;28;98107;-66
2021/12/11 22:31:07;;;;;;;115.88;48.35;;;;;;;22.75;37.55;96780.75;10369194;28;97858;-66
2021/12/11 22:36:10;;;;;;;103.63;45.53;;;;;;;22.76;37.37;96784.22;10370483;28;96992;-66
2021/12/11 22:41:17;;;;;;;106.07;43.20;;;;;;;22.71;37.67;96790.16;10367977;28;97065;-66
2021/12/11 22:46:23;;;;;;;99.00;42.00;;;;;;;22.72;37.34;96797.16;10370851;28;97546;-67
2021/12/11 22:51:30;;;;;;;97.70;39.35;;;;;;;22.72;36.91;96799.81;10372779;28;98318;-66
2021/12/11 22:56:37;;;;;;;93.32;39.28;;;;;;;22.74;37.36;96794.28;10368941;28;98560;-67
2021/12/11 23:01:48;;;;;;;81.00;35.67;;;;;;;22.74;36.59;96795.09;10371206;28;98848;-67
2021/12/11 23:06:53;;;;;;;82.32;35.70;;;;;;;22.77;36.78;96810.66;10369072;28;97091;-67
2021/12/11 23:12:01;;;;;;;77.38;34.03;;;;;;;22.75;36.80;96807.38;10366326;28;97139;-67
2021/12/11 23:17:12;;;;;;;75.70;33.28;;;;;;;22.73;36.74;96804.09;10360978;28;100443;-67
2021/12/11 23:22:19;;;;;;;71.63;31.02;;;;;;;22.78;36.98;96806.13;10368574;28;97014;-67
2021/12/11 23:27:27;;;;;;;68.38;29.52;;;;;;;22.85;36.90;96795.44;10366524;28;96928;-67
2021/12/11 23:32:36;;;;;;;62.55;29.98;;;;;;;22.85;36.64;96800.78;10363108;28;97162;-66
2021/12/11 23:37:42;;;;;;;60.97;28.00;;;;;;;22.86;37.04;96799.75;10379961;28;96792;-66
2021/12/11 23:42:48;;;;;;;56.30;26.48;;;;;;;22.86;36.53;96797.91;10360769;28;98479;-67